sensor_id;sensor_type;location;lat;lon;timestamp;temperature;humidity
3846;DHT22;1938;50.812;7.738;2022-10-26T00:00:12;10.40;99.90
3846;DHT22;1938;50.812;7.738;2022-10-26T00:02:38;10.40;99.90
3846;DHT22;1938;50.812;7.738;2022-10-26T00:05:04;10.40;99.90
3846;DHT22;1938;50.812;7.738;2022-10-26T00:07:30;10.40;99.90
3846;DHT22;1938;50.812;7.738;2022-10-26T00:09:55;10.40;99.90
3846;DHT22;1938;50.812;7.738;2022-10-26T00:12:21;10.40;99.90
3846;DHT22;1938;50.812;7.738;2022-10-26T00:14:47;10.40;99.90
3846;DHT22;1938;50.812;7.738;2022-10-26T00:17:12;10.30;99.90
3846;DHT22;1938;50.812;7.738;2022-10-26T00:19:38;10.30;99.90
3846;DHT22;1938;50.812;7.738;2022-10-26T00:22:03;10.40;99.90
3846;DHT22;1938;50.812;7.738;2022-10-26T00:24:29;10.30;99.90
3846;DHT22;1938;50.812;7.738;2022-10-26T00:26:54;10.30;99.90
3846;DHT22;1938;50.812;7.738;2022-10-26T00:29:20;10.30;99.90
3846;DHT22;1938;50.812;7.738;2022-10-26T00:31:46;10.40;99.90
3846;DHT22;1938;50.812;7.738;2022-10-26T00:34:11;10.40;99.90
3846;DHT22;1938;50.812;7.738;2022-10-26T00:36:37;10.40;99.90
3846;DHT22;1938;50.812;7.738;2022-10-26T00:39:03;10.50;99.90
3846;DHT22;1938;50.812;7.738;2022-10-26T00:41:31;10.50;99.90
3846;DHT22;1938;50.812;7.738;2022-10-26T00:43:57;10.50;99.90
3846;DHT22;1938;50.812;7.738;2022-10-26T00:46:27;10.50;99.90
3846;DHT22;1938;50.812;7.738;2022-10-26T00:49:20;10.60;99.90
3846;DHT22;1938;50.812;7.738;2022-10-26T00:51:50;10.60;99.90
3846;DHT22;1938;50.812;7.738;2022-10-26T00:54:17;10.70;99.90
3846;DHT22;1938;50.812;7.738;2022-10-26T00:56:49;10.70;99.90
3846;DHT22;1938;50.812;7.738;2022-10-26T00:59:16;10.70;99.90
3846;DHT22;1938;50.812;7.738;2022-10-26T01:01:44;10.80;99.90
3846;DHT22;1938;50.812;7.738;2022-10-26T01:04:12;10.80;99.90
3846;DHT22;1938;50.812;7.738;2022-10-26T01:06:40;10.90;99.90
3846;DHT22;1938;50.812;7.738;2022-10-26T01:09:07;10.90;99.90
3846;DHT22;1938;50.812;7.738;2022-10-26T01:11:33;10.90;99.90
3846;DHT22;1938;50.812;7.738;2022-10-26T01:14:00;10.90;99.90
3846;DHT22;1938;50.812;7.738;2022-10-26T01:17:00;10.90;99.90
3846;DHT22;1938;50.812;7.738;2022-10-26T01:27:34;11.00;99.90
3846;DHT22;1938;50.812;7.738;2022-10-26T01:32:45;10.90;99.90
3846;DHT22;1938;50.812;7.738;2022-10-26T01:35:18;10.80;99.90
3846;DHT22;1938;50.812;7.738;2022-10-26T01:37:55;10.80;99.90
3846;DHT22;1938;50.812;7.738;2022-10-26T01:40:27;10.80;99.90
3846;DHT22;1938;50.812;7.738;2022-10-26T01:42:56;10.80;99.90
3846;DHT22;1938;50.812;7.738;2022-10-26T01:45:23;10.80;99.90
3846;DHT22;1938;50.812;7.738;2022-10-26T01:47:51;10.90;99.90
3846;DHT22;1938;50.812;7.738;2022-10-26T01:50:19;10.90;99.90
3846;DHT22;1938;50.812;7.738;2022-10-26T01:52:48;11.00;99.90
3846;DHT22;1938;50.812;7.738;2022-10-26T02:00:42;11.00;99.90
3846;DHT22;1938;50.812;7.738;2022-10-26T02:03:14;11.00;99.90
3846;DHT22;1938;50.812;7.738;2022-10-26T02:06:05;11.00;99.90
3846;DHT22;1938;50.812;7.738;2022-10-26T02:11:24;11.10;99.90
3846;DHT22;1938;50.812;7.738;2022-10-26T02:24:36;11.10;99.90
3846;DHT22;1938;50.812;7.738;2022-10-26T02:27:05;11.20;99.90
3846;DHT22;1938;50.812;7.738;2022-10-26T02:29:34;11.20;99.90
3846;DHT22;1938;50.812;7.738;2022-10-26T02:32:01;11.10;99.90
3846;DHT22;1938;50.812;7.738;2022-10-26T02:34:28;11.10;99.90
3846;DHT22;1938;50.812;7.738;2022-10-26T02:36:56;11.10;99.90
3846;DHT22;1938;50.812;7.738;2022-10-26T02:39:22;11.10;99.90
3846;DHT22;1938;50.812;7.738;2022-10-26T02:41:50;11.20;99.90
3846;DHT22;1938;50.812;7.738;2022-10-26T02:44:25;11.20;99.90
3846;DHT22;1938;50.812;7.738;2022-10-26T02:46:52;11.20;99.90
3846;DHT22;1938;50.812;7.738;2022-10-26T02:49:20;11.30;99.90
3846;DHT22;1938;50.812;7.738;2022-10-26T02:54:51;11.30;99.90
3846;DHT22;1938;50.812;7.738;2022-10-26T02:57:28;11.40;99.90
3846;DHT22;1938;50.812;7.738;2022-10-26T02:59:58;11.40;99.90
3846;DHT22;1938;50.812;7.738;2022-10-26T03:02:25;11.50;99.90
3846;DHT22;1938;50.812;7.738;2022-10-26T03:04:51;11.50;99.90
3846;DHT22;1938;50.812;7.738;2022-10-26T03:07:24;11.50;99.90
3846;DHT22;1938;50.812;7.738;2022-10-26T03:09:50;11.50;99.90
3846;DHT22;1938;50.812;7.738;2022-10-26T03:12:17;11.50;99.90
3846;DHT22;1938;50.812;7.738;2022-10-26T03:14:42;11.60;99.90
3846;DHT22;1938;50.812;7.738;2022-10-26T03:17:08;11.60;99.90
3846;DHT22;1938;50.812;7.738;2022-10-26T03:19:34;11.70;99.90
3846;DHT22;1938;50.812;7.738;2022-10-26T03:22:00;11.70;99.90
3846;DHT22;1938;50.812;7.738;2022-10-26T03:24:26;11.80;99.90
3846;DHT22;1938;50.812;7.738;2022-10-26T03:26:52;11.70;99.90
3846;DHT22;1938;50.812;7.738;2022-10-26T03:29:17;11.70;99.90
3846;DHT22;1938;50.812;7.738;2022-10-26T03:31:43;11.70;99.90
3846;DHT22;1938;50.812;7.738;2022-10-26T03:34:09;11.70;99.90
3846;DHT22;1938;50.812;7.738;2022-10-26T03:36:34;11.70;99.90
3846;DHT22;1938;50.812;7.738;2022-10-26T03:39:00;11.70;99.90
3846;DHT22;1938;50.812;7.738;2022-10-26T03:41:26;11.70;99.90
3846;DHT22;1938;50.812;7.738;2022-10-26T03:43:52;11.70;99.90
3846;DHT22;1938;50.812;7.738;2022-10-26T03:46:18;11.70;99.90
3846;DHT22;1938;50.812;7.738;2022-10-26T03:48:43;11.80;99.90
3846;DHT22;1938;50.812;7.738;2022-10-26T03:51:09;11.70;99.90
3846;DHT22;1938;50.812;7.738;2022-10-26T03:53:35;11.80;99.90
3846;DHT22;1938;50.812;7.738;2022-10-26T03:56:01;11.80;99.90
3846;DHT22;1938;50.812;7.738;2022-10-26T03:58:27;11.80;99.90
3846;DHT22;1938;50.812;7.738;2022-10-26T04:00:52;11.90;99.90
3846;DHT22;1938;50.812;7.738;2022-10-26T04:03:18;12.00;99.90
3846;DHT22;1938;50.812;7.738;2022-10-26T04:05:44;12.10;99.90
3846;DHT22;1938;50.812;7.738;2022-10-26T04:08:09;12.10;99.90
3846;DHT22;1938;50.812;7.738;2022-10-26T04:10:36;12.20;99.90
3846;DHT22;1938;50.812;7.738;2022-10-26T04:13:02;12.20;99.90
3846;DHT22;1938;50.812;7.738;2022-10-26T04:15:28;12.20;99.90
3846;DHT22;1938;50.812;7.738;2022-10-26T04:18:01;12.20;99.90
3846;DHT22;1938;50.812;7.738;2022-10-26T04:20:27;12.30;99.90
3846;DHT22;1938;50.812;7.738;2022-10-26T04:23:04;12.30;98.10
3846;DHT22;1938;50.812;7.738;2022-10-26T04:25:30;12.30;96.90
3846;DHT22;1938;50.812;7.738;2022-10-26T04:27:56;12.40;94.30
3846;DHT22;1938;50.812;7.738;2022-10-26T04:30:21;12.40;78.90
3846;DHT22;1938;50.812;7.738;2022-10-26T04:32:47;12.40;51.50
3846;DHT22;1938;50.812;7.738;2022-10-26T04:35:13;12.50;49.50
3846;DHT22;1938;50.812;7.738;2022-10-26T04:37:38;12.50;22.90
3846;DHT22;1938;50.812;7.738;2022-10-26T04:40:04;12.60;9.80
3846;DHT22;1938;50.812;7.738;2022-10-26T04:42:30;12.60;1.00
3846;DHT22;1938;50.812;7.738;2022-10-26T04:44:58;12.60;1.00
3846;DHT22;1938;50.812;7.738;2022-10-26T04:47:24;12.60;1.00
3846;DHT22;1938;50.812;7.738;2022-10-26T04:49:55;12.60;1.00
3846;DHT22;1938;50.812;7.738;2022-10-26T04:52:21;12.70;1.00
3846;DHT22;1938;50.812;7.738;2022-10-26T04:54:46;12.60;1.00
3846;DHT22;1938;50.812;7.738;2022-10-26T04:57:12;12.70;1.00
3846;DHT22;1938;50.812;7.738;2022-10-26T04:59:39;12.70;1.00
3846;DHT22;1938;50.812;7.738;2022-10-26T05:02:04;12.70;1.00
3846;DHT22;1938;50.812;7.738;2022-10-26T05:04:30;12.70;1.00
3846;DHT22;1938;50.812;7.738;2022-10-26T05:06:55;12.70;1.00
3846;DHT22;1938;50.812;7.738;2022-10-26T05:09:21;12.80;1.00
3846;DHT22;1938;50.812;7.738;2022-10-26T05:11:47;12.80;1.00
3846;DHT22;1938;50.812;7.738;2022-10-26T05:14:12;12.80;1.00
3846;DHT22;1938;50.812;7.738;2022-10-26T05:16:38;12.80;99.90
3846;DHT22;1938;50.812;7.738;2022-10-26T05:19:04;12.90;99.90
3846;DHT22;1938;50.812;7.738;2022-10-26T05:21:30;12.90;99.90
3846;DHT22;1938;50.812;7.738;2022-10-26T05:23:56;13.00;99.90
3846;DHT22;1938;50.812;7.738;2022-10-26T05:26:22;13.00;99.90
3846;DHT22;1938;50.812;7.738;2022-10-26T05:28:49;13.00;99.90
3846;DHT22;1938;50.812;7.738;2022-10-26T05:31:16;13.00;99.90
3846;DHT22;1938;50.812;7.738;2022-10-26T05:33:41;13.00;99.90
3846;DHT22;1938;50.812;7.738;2022-10-26T05:36:07;13.00;1.00
3846;DHT22;1938;50.812;7.738;2022-10-26T05:38:34;13.00;23.30
3846;DHT22;1938;50.812;7.738;2022-10-26T05:40:59;13.00;1.00
3846;DHT22;1938;50.812;7.738;2022-10-26T05:43:28;13.00;1.00
3846;DHT22;1938;50.812;7.738;2022-10-26T05:45:54;13.10;1.00
3846;DHT22;1938;50.812;7.738;2022-10-26T05:48:20;13.10;1.00
3846;DHT22;1938;50.812;7.738;2022-10-26T05:50:46;13.00;34.30
3846;DHT22;1938;50.812;7.738;2022-10-26T05:53:13;13.00;99.90
3846;DHT22;1938;50.812;7.738;2022-10-26T05:55:39;13.00;99.90
3846;DHT22;1938;50.812;7.738;2022-10-26T05:58:12;13.00;78.50
3846;DHT22;1938;50.812;7.738;2022-10-26T06:01:30;13.10;92.40
3846;DHT22;1938;50.812;7.738;2022-10-26T06:06:11;13.10;99.90
3846;DHT22;1938;50.812;7.738;2022-10-26T12:12:57;17.60;1.00
3846;DHT22;1938;50.812;7.738;2022-10-26T12:15:27;17.60;1.00
3846;DHT22;1938;50.812;7.738;2022-10-26T12:23:10;17.30;1.00
3846;DHT22;1938;50.812;7.738;2022-10-26T12:25:36;17.40;99.90
3846;DHT22;1938;50.812;7.738;2022-10-26T12:28:01;17.50;99.90
3846;DHT22;1938;50.812;7.738;2022-10-26T12:30:32;17.50;99.90
3846;DHT22;1938;50.812;7.738;2022-10-26T12:33:00;17.50;74.30
3846;DHT22;1938;50.812;7.738;2022-10-26T12:35:38;17.60;1.00
3846;DHT22;1938;50.812;7.738;2022-10-26T12:41:12;18.00;99.90
3846;DHT22;1938;50.812;7.738;2022-10-26T12:43:40;18.20;99.90
3846;DHT22;1938;50.812;7.738;2022-10-26T12:59:12;19.50;12.20
3846;DHT22;1938;50.812;7.738;2022-10-26T13:07:38;20.00;1.00
3846;DHT22;1938;50.812;7.738;2022-10-26T13:12:50;20.20;99.90
3846;DHT22;1938;50.812;7.738;2022-10-26T13:15:27;20.30;1.00
3846;DHT22;1938;50.812;7.738;2022-10-26T13:18:06;20.50;99.90
3846;DHT22;1938;50.812;7.738;2022-10-26T13:20:35;20.60;99.90
3846;DHT22;1938;50.812;7.738;2022-10-26T13:23:08;20.60;99.90
3846;DHT22;1938;50.812;7.738;2022-10-26T13:25:39;20.60;99.90
3846;DHT22;1938;50.812;7.738;2022-10-26T13:28:29;20.60;99.90
3846;DHT22;1938;50.812;7.738;2022-10-26T13:30:52;20.60;99.90
3846;DHT22;1938;50.812;7.738;2022-10-26T13:33:23;20.50;99.90
3846;DHT22;1938;50.812;7.738;2022-10-26T13:35:51;20.50;99.90
3846;DHT22;1938;50.812;7.738;2022-10-26T13:38:20;20.50;99.90
3846;DHT22;1938;50.812;7.738;2022-10-26T13:40:47;20.60;99.90
3846;DHT22;1938;50.812;7.738;2022-10-26T13:43:19;20.60;99.90
3846;DHT22;1938;50.812;7.738;2022-10-26T13:45:53;20.60;99.90
3846;DHT22;1938;50.812;7.738;2022-10-26T13:48:32;20.70;99.90
3846;DHT22;1938;50.812;7.738;2022-10-26T13:51:25;20.70;99.90
3846;DHT22;1938;50.812;7.738;2022-10-26T13:53:58;20.70;99.90
3846;DHT22;1938;50.812;7.738;2022-10-26T13:56:32;20.70;99.90
3846;DHT22;1938;50.812;7.738;2022-10-26T13:59:07;20.80;99.90
3846;DHT22;1938;50.812;7.738;2022-10-26T14:01:35;20.80;99.90
3846;DHT22;1938;50.812;7.738;2022-10-26T14:04:25;20.90;99.90
3846;DHT22;1938;50.812;7.738;2022-10-26T14:06:52;20.90;99.90
3846;DHT22;1938;50.812;7.738;2022-10-26T14:09:19;20.90;99.90
3846;DHT22;1938;50.812;7.738;2022-10-26T14:11:53;20.80;99.90
3846;DHT22;1938;50.812;7.738;2022-10-26T14:14:23;20.70;86.90
3846;DHT22;1938;50.812;7.738;2022-10-26T14:16:52;20.70;94.00
3846;DHT22;1938;50.812;7.738;2022-10-26T14:19:28;20.70;99.90
3846;DHT22;1938;50.812;7.738;2022-10-26T14:21:54;20.70;99.90
3846;DHT22;1938;50.812;7.738;2022-10-26T14:24:48;20.60;99.90
3846;DHT22;1938;50.812;7.738;2022-10-26T14:27:16;20.60;97.60
3846;DHT22;1938;50.812;7.738;2022-10-26T14:29:42;20.60;99.90
3846;DHT22;1938;50.812;7.738;2022-10-26T14:32:41;20.50;99.90
3846;DHT22;1938;50.812;7.738;2022-10-26T14:35:13;20.50;99.90
3846;DHT22;1938;50.812;7.738;2022-10-26T14:40:17;20.50;99.90
3846;DHT22;1938;50.812;7.738;2022-10-26T14:42:47;20.50;99.90
3846;DHT22;1938;50.812;7.738;2022-10-26T14:45:33;20.50;99.90
3846;DHT22;1938;50.812;7.738;2022-10-26T14:48:03;20.40;99.90
3846;DHT22;1938;50.812;7.738;2022-10-26T14:50:29;20.40;99.90
3846;DHT22;1938;50.812;7.738;2022-10-26T14:53:01;20.30;99.90
3846;DHT22;1938;50.812;7.738;2022-10-26T14:55:29;20.30;99.90
3846;DHT22;1938;50.812;7.738;2022-10-26T14:58:20;20.20;99.90
3846;DHT22;1938;50.812;7.738;2022-10-26T15:00:46;20.20;99.90
3846;DHT22;1938;50.812;7.738;2022-10-26T15:03:16;20.10;99.90
3846;DHT22;1938;50.812;7.738;2022-10-26T15:05:45;20.00;99.90
3846;DHT22;1938;50.812;7.738;2022-10-26T15:08:39;19.90;99.90
3846;DHT22;1938;50.812;7.738;2022-10-26T15:11:08;19.80;1.00
3846;DHT22;1938;50.812;7.738;2022-10-26T15:13:34;19.70;1.00
3846;DHT22;1938;50.812;7.738;2022-10-26T15:16:14;19.60;1.00
3846;DHT22;1938;50.812;7.738;2022-10-26T15:18:41;19.50;1.00
3846;DHT22;1938;50.812;7.738;2022-10-26T15:21:22;19.50;1.00
3846;DHT22;1938;50.812;7.738;2022-10-26T15:23:50;19.40;1.00
3846;DHT22;1938;50.812;7.738;2022-10-26T15:26:16;19.40;1.00
3846;DHT22;1938;50.812;7.738;2022-10-26T15:28:42;19.30;1.00
3846;DHT22;1938;50.812;7.738;2022-10-26T15:33:40;19.20;1.00
3846;DHT22;1938;50.812;7.738;2022-10-26T15:36:20;19.20;25.30
3846;DHT22;1938;50.812;7.738;2022-10-26T15:38:46;19.00;93.00
3846;DHT22;1938;50.812;7.738;2022-10-26T15:41:34;19.00;99.90
3846;DHT22;1938;50.812;7.738;2022-10-26T15:44:03;18.90;99.90
3846;DHT22;1938;50.812;7.738;2022-10-26T15:46:35;18.80;99.90
3846;DHT22;1938;50.812;7.738;2022-10-26T15:49:05;18.70;99.90
3846;DHT22;1938;50.812;7.738;2022-10-26T15:51:31;18.70;99.90
3846;DHT22;1938;50.812;7.738;2022-10-26T15:53:57;18.60;1.00
3846;DHT22;1938;50.812;7.738;2022-10-26T15:56:24;18.50;1.00
3846;DHT22;1938;50.812;7.738;2022-10-26T15:58:51;18.50;99.90
3846;DHT22;1938;50.812;7.738;2022-10-26T16:01:20;18.40;99.90
3846;DHT22;1938;50.812;7.738;2022-10-26T16:03:46;18.30;1.00
3846;DHT22;1938;50.812;7.738;2022-10-26T16:06:20;18.20;1.00
3846;DHT22;1938;50.812;7.738;2022-10-26T16:08:50;18.20;1.00
3846;DHT22;1938;50.812;7.738;2022-10-26T16:11:17;18.10;93.00
3846;DHT22;1938;50.812;7.738;2022-10-26T16:13:42;18.00;99.90
3846;DHT22;1938;50.812;7.738;2022-10-26T16:16:13;17.90;99.90
3846;DHT22;1938;50.812;7.738;2022-10-26T16:18:40;17.90;99.90
3846;DHT22;1938;50.812;7.738;2022-10-26T16:21:09;17.80;99.90
3846;DHT22;1938;50.812;7.738;2022-10-26T16:23:35;17.70;1.00
3846;DHT22;1938;50.812;7.738;2022-10-26T16:26:02;17.60;1.00
3846;DHT22;1938;50.812;7.738;2022-10-26T16:28:28;17.60;1.00
3846;DHT22;1938;50.812;7.738;2022-10-26T16:31:01;17.60;99.90
3846;DHT22;1938;50.812;7.738;2022-10-26T16:33:27;17.40;1.00
3846;DHT22;1938;50.812;7.738;2022-10-26T16:35:57;17.40;99.90
3846;DHT22;1938;50.812;7.738;2022-10-26T16:38:23;17.30;99.90
3846;DHT22;1938;50.812;7.738;2022-10-26T16:40:49;17.30;99.90
3846;DHT22;1938;50.812;7.738;2022-10-26T16:43:15;17.30;99.90
3846;DHT22;1938;50.812;7.738;2022-10-26T16:45:40;17.20;99.90
3846;DHT22;1938;50.812;7.738;2022-10-26T16:48:07;17.30;99.90
3846;DHT22;1938;50.812;7.738;2022-10-26T16:50:39;17.20;99.90
3846;DHT22;1938;50.812;7.738;2022-10-26T16:53:04;17.10;1.00
3846;DHT22;1938;50.812;7.738;2022-10-26T16:55:31;17.00;1.00
3846;DHT22;1938;50.812;7.738;2022-10-26T16:57:57;17.00;99.90
3846;DHT22;1938;50.812;7.738;2022-10-26T17:00:22;16.90;99.90
3846;DHT22;1938;50.812;7.738;2022-10-26T17:02:48;16.90;99.90
3846;DHT22;1938;50.812;7.738;2022-10-26T17:05:14;16.80;99.90
3846;DHT22;1938;50.812;7.738;2022-10-26T17:07:39;16.80;99.90
3846;DHT22;1938;50.812;7.738;2022-10-26T17:10:05;16.70;99.90
3846;DHT22;1938;50.812;7.738;2022-10-26T17:12:31;16.70;1.00
3846;DHT22;1938;50.812;7.738;2022-10-26T17:14:56;16.70;1.00
3846;DHT22;1938;50.812;7.738;2022-10-26T17:17:24;16.60;1.00
3846;DHT22;1938;50.812;7.738;2022-10-26T17:19:50;16.60;1.00
3846;DHT22;1938;50.812;7.738;2022-10-26T17:22:16;16.60;15.80
3846;DHT22;1938;50.812;7.738;2022-10-26T17:24:42;16.50;41.10
3846;DHT22;1938;50.812;7.738;2022-10-26T17:27:08;16.50;99.90
3846;DHT22;1938;50.812;7.738;2022-10-26T17:29:34;16.40;99.90
3846;DHT22;1938;50.812;7.738;2022-10-26T17:32:00;16.40;99.90
3846;DHT22;1938;50.812;7.738;2022-10-26T17:34:25;16.40;99.90
3846;DHT22;1938;50.812;7.738;2022-10-26T17:36:51;16.40;99.90
3846;DHT22;1938;50.812;7.738;2022-10-26T17:39:16;16.30;1.00
3846;DHT22;1938;50.812;7.738;2022-10-26T17:41:44;16.30;1.00
3846;DHT22;1938;50.812;7.738;2022-10-26T17:44:10;16.30;1.00
3846;DHT22;1938;50.812;7.738;2022-10-26T17:46:35;16.20;1.00
3846;DHT22;1938;50.812;7.738;2022-10-26T17:49:01;16.20;1.00
3846;DHT22;1938;50.812;7.738;2022-10-26T17:51:28;16.20;99.90
3846;DHT22;1938;50.812;7.738;2022-10-26T17:53:54;16.20;1.00
3846;DHT22;1938;50.812;7.738;2022-10-26T17:56:24;16.10;1.00
3846;DHT22;1938;50.812;7.738;2022-10-26T17:58:51;16.10;99.90
3846;DHT22;1938;50.812;7.738;2022-10-26T18:01:17;16.10;1.00
3846;DHT22;1938;50.812;7.738;2022-10-26T18:03:43;16.00;99.90
3846;DHT22;1938;50.812;7.738;2022-10-26T18:06:09;15.80;1.00
3846;DHT22;1938;50.812;7.738;2022-10-26T18:08:36;15.60;99.90
3846;DHT22;1938;50.812;7.738;2022-10-26T18:11:04;15.40;99.90
3846;DHT22;1938;50.812;7.738;2022-10-26T18:13:31;15.30;1.00
3846;DHT22;1938;50.812;7.738;2022-10-26T18:16:05;15.30;1.00
3846;DHT22;1938;50.812;7.738;2022-10-26T18:18:31;15.20;1.00
3846;DHT22;1938;50.812;7.738;2022-10-26T18:21:02;15.30;1.00
3846;DHT22;1938;50.812;7.738;2022-10-26T18:23:28;15.30;1.00
3846;DHT22;1938;50.812;7.738;2022-10-26T18:26:25;15.30;1.00
3846;DHT22;1938;50.812;7.738;2022-10-26T18:28:51;15.20;99.90
3846;DHT22;1938;50.812;7.738;2022-10-26T18:31:18;15.20;1.00
3846;DHT22;1938;50.812;7.738;2022-10-26T18:33:44;15.20;1.00
3846;DHT22;1938;50.812;7.738;2022-10-26T18:36:15;15.10;1.00
3846;DHT22;1938;50.812;7.738;2022-10-26T18:38:41;15.10;1.00
3846;DHT22;1938;50.812;7.738;2022-10-26T18:41:10;15.00;1.00
3846;DHT22;1938;50.812;7.738;2022-10-26T18:43:44;15.00;13.50
3846;DHT22;1938;50.812;7.738;2022-10-26T18:46:15;15.00;41.80
3846;DHT22;1938;50.812;7.738;2022-10-26T18:48:41;15.00;30.00
3846;DHT22;1938;50.812;7.738;2022-10-26T18:51:13;14.90;13.00
3846;DHT22;1938;50.812;7.738;2022-10-26T18:53:40;14.90;55.50
3846;DHT22;1938;50.812;7.738;2022-10-26T18:56:09;14.90;77.00
3846;DHT22;1938;50.812;7.738;2022-10-26T18:58:38;14.90;33.10
3846;DHT22;1938;50.812;7.738;2022-10-26T19:03:40;14.80;82.10
3846;DHT22;1938;50.812;7.738;2022-10-26T19:06:14;14.70;42.00
3846;DHT22;1938;50.812;7.738;2022-10-26T19:08:40;14.70;99.90
3846;DHT22;1938;50.812;7.738;2022-10-26T19:11:09;14.70;99.90
3846;DHT22;1938;50.812;7.738;2022-10-26T19:13:35;14.70;99.90
3846;DHT22;1938;50.812;7.738;2022-10-26T19:16:04;14.70;61.90
3846;DHT22;1938;50.812;7.738;2022-10-26T19:18:31;14.60;99.90
3846;DHT22;1938;50.812;7.738;2022-10-26T19:21:19;14.60;99.90
3846;DHT22;1938;50.812;7.738;2022-10-26T19:23:45;14.60;99.90
3846;DHT22;1938;50.812;7.738;2022-10-26T19:26:13;14.50;99.90
3846;DHT22;1938;50.812;7.738;2022-10-26T19:28:39;14.60;99.90
3846;DHT22;1938;50.812;7.738;2022-10-26T19:31:07;14.60;99.90
3846;DHT22;1938;50.812;7.738;2022-10-26T19:33:33;14.60;72.20
3846;DHT22;1938;50.812;7.738;2022-10-26T19:36:02;14.60;99.90
3846;DHT22;1938;50.812;7.738;2022-10-26T19:38:28;14.60;97.70
3846;DHT22;1938;50.812;7.738;2022-10-26T19:40:59;14.40;99.90
3846;DHT22;1938;50.812;7.738;2022-10-26T19:43:25;14.30;99.90
3846;DHT22;1938;50.812;7.738;2022-10-26T19:45:55;14.20;99.90
3846;DHT22;1938;50.812;7.738;2022-10-26T19:48:21;14.20;99.90
3846;DHT22;1938;50.812;7.738;2022-10-26T19:50:48;14.20;99.90
3846;DHT22;1938;50.812;7.738;2022-10-26T19:53:14;14.20;99.90
3846;DHT22;1938;50.812;7.738;2022-10-26T19:55:44;14.30;99.90
3846;DHT22;1938;50.812;7.738;2022-10-26T19:58:11;14.20;99.90
3846;DHT22;1938;50.812;7.738;2022-10-26T20:00:37;14.10;99.90
3846;DHT22;1938;50.812;7.738;2022-10-26T20:03:03;14.10;99.90
3846;DHT22;1938;50.812;7.738;2022-10-26T20:05:29;14.00;99.90
3846;DHT22;1938;50.812;7.738;2022-10-26T20:07:55;14.00;99.90
3846;DHT22;1938;50.812;7.738;2022-10-26T20:10:21;13.80;99.90
3846;DHT22;1938;50.812;7.738;2022-10-26T20:12:47;13.80;99.90
3846;DHT22;1938;50.812;7.738;2022-10-26T20:15:13;13.80;99.90
3846;DHT22;1938;50.812;7.738;2022-10-26T20:17:39;13.70;99.90
3846;DHT22;1938;50.812;7.738;2022-10-26T20:20:06;13.80;99.90
3846;DHT22;1938;50.812;7.738;2022-10-26T20:22:31;13.70;99.90
3846;DHT22;1938;50.812;7.738;2022-10-26T20:24:57;13.70;99.90
3846;DHT22;1938;50.812;7.738;2022-10-26T20:27:23;13.60;99.90
3846;DHT22;1938;50.812;7.738;2022-10-26T20:29:49;13.60;99.90
3846;DHT22;1938;50.812;7.738;2022-10-26T20:32:15;13.60;99.90
3846;DHT22;1938;50.812;7.738;2022-10-26T20:34:41;13.60;99.90
3846;DHT22;1938;50.812;7.738;2022-10-26T20:37:08;13.70;99.90
3846;DHT22;1938;50.812;7.738;2022-10-26T20:39:34;13.70;99.90
3846;DHT22;1938;50.812;7.738;2022-10-26T20:42:01;13.70;99.90
3846;DHT22;1938;50.812;7.738;2022-10-26T20:44:30;13.70;99.90
3846;DHT22;1938;50.812;7.738;2022-10-26T20:46:58;13.70;99.90
3846;DHT22;1938;50.812;7.738;2022-10-26T20:49:24;13.70;99.90
3846;DHT22;1938;50.812;7.738;2022-10-26T20:52:04;13.70;99.90
3846;DHT22;1938;50.812;7.738;2022-10-26T20:57:21;13.60;99.90
3846;DHT22;1938;50.812;7.738;2022-10-26T20:59:52;13.60;99.90
3846;DHT22;1938;50.812;7.738;2022-10-26T21:02:20;13.50;99.90
3846;DHT22;1938;50.812;7.738;2022-10-26T21:04:46;13.60;99.90
3846;DHT22;1938;50.812;7.738;2022-10-26T21:07:13;13.60;99.90
3846;DHT22;1938;50.812;7.738;2022-10-26T21:09:39;13.60;99.90
3846;DHT22;1938;50.812;7.738;2022-10-26T21:12:04;13.50;99.90
3846;DHT22;1938;50.812;7.738;2022-10-26T21:14:30;13.40;99.90
3846;DHT22;1938;50.812;7.738;2022-10-26T21:17:00;13.40;99.90
3846;DHT22;1938;50.812;7.738;2022-10-26T21:19:25;13.40;99.90
3846;DHT22;1938;50.812;7.738;2022-10-26T21:21:51;13.40;99.90
3846;DHT22;1938;50.812;7.738;2022-10-26T21:24:16;13.30;99.90
3846;DHT22;1938;50.812;7.738;2022-10-26T21:26:42;13.30;99.90
3846;DHT22;1938;50.812;7.738;2022-10-26T21:29:09;13.30;99.90
3846;DHT22;1938;50.812;7.738;2022-10-26T21:31:35;13.20;99.90
3846;DHT22;1938;50.812;7.738;2022-10-26T21:34:01;13.20;99.90
3846;DHT22;1938;50.812;7.738;2022-10-26T21:36:26;13.20;99.90
3846;DHT22;1938;50.812;7.738;2022-10-26T21:38:53;13.20;99.90
3846;DHT22;1938;50.812;7.738;2022-10-26T21:41:19;13.10;99.90
3846;DHT22;1938;50.812;7.738;2022-10-26T21:43:48;13.00;99.90
3846;DHT22;1938;50.812;7.738;2022-10-26T21:46:16;13.00;99.90
3846;DHT22;1938;50.812;7.738;2022-10-26T21:48:42;13.00;99.90
3846;DHT22;1938;50.812;7.738;2022-10-26T21:51:11;12.90;99.90
3846;DHT22;1938;50.812;7.738;2022-10-26T21:53:37;13.00;99.90
3846;DHT22;1938;50.812;7.738;2022-10-26T21:56:05;12.90;99.90
3846;DHT22;1938;50.812;7.738;2022-10-26T21:58:32;12.90;99.90
3846;DHT22;1938;50.812;7.738;2022-10-26T22:01:05;12.80;99.90
3846;DHT22;1938;50.812;7.738;2022-10-26T22:03:31;12.70;99.90
3846;DHT22;1938;50.812;7.738;2022-10-26T22:05:57;12.80;99.90
3846;DHT22;1938;50.812;7.738;2022-10-26T22:08:22;12.70;99.90
3846;DHT22;1938;50.812;7.738;2022-10-26T22:10:48;12.70;99.90
3846;DHT22;1938;50.812;7.738;2022-10-26T22:13:14;12.70;99.90
3846;DHT22;1938;50.812;7.738;2022-10-26T22:15:39;12.70;99.90
3846;DHT22;1938;50.812;7.738;2022-10-26T22:18:05;12.70;99.90
3846;DHT22;1938;50.812;7.738;2022-10-26T22:20:30;12.80;99.90
3846;DHT22;1938;50.812;7.738;2022-10-26T22:22:56;12.90;99.90
3846;DHT22;1938;50.812;7.738;2022-10-26T22:25:22;12.90;99.90
3846;DHT22;1938;50.812;7.738;2022-10-26T22:27:48;12.80;99.90
3846;DHT22;1938;50.812;7.738;2022-10-26T22:30:13;12.90;99.90
3846;DHT22;1938;50.812;7.738;2022-10-26T22:32:39;12.70;99.90
3846;DHT22;1938;50.812;7.738;2022-10-26T22:35:05;12.60;99.90
3846;DHT22;1938;50.812;7.738;2022-10-26T22:37:31;12.50;99.90
3846;DHT22;1938;50.812;7.738;2022-10-26T22:39:56;12.60;99.90
3846;DHT22;1938;50.812;7.738;2022-10-26T22:42:22;12.50;99.90
3846;DHT22;1938;50.812;7.738;2022-10-26T22:44:48;12.50;99.90
3846;DHT22;1938;50.812;7.738;2022-10-26T22:47:14;12.40;99.90
3846;DHT22;1938;50.812;7.738;2022-10-26T22:49:40;12.40;99.90
3846;DHT22;1938;50.812;7.738;2022-10-26T22:52:05;12.40;99.90
3846;DHT22;1938;50.812;7.738;2022-10-26T22:54:31;12.30;99.90
3846;DHT22;1938;50.812;7.738;2022-10-26T22:56:56;12.40;99.90
3846;DHT22;1938;50.812;7.738;2022-10-26T22:59:22;12.40;99.90
3846;DHT22;1938;50.812;7.738;2022-10-26T23:01:47;12.40;99.90
3846;DHT22;1938;50.812;7.738;2022-10-26T23:04:13;12.30;99.90
3846;DHT22;1938;50.812;7.738;2022-10-26T23:06:39;12.30;99.90
3846;DHT22;1938;50.812;7.738;2022-10-26T23:09:05;12.10;99.90
3846;DHT22;1938;50.812;7.738;2022-10-26T23:11:31;12.00;99.90
3846;DHT22;1938;50.812;7.738;2022-10-26T23:13:59;12.10;99.90
3846;DHT22;1938;50.812;7.738;2022-10-26T23:16:25;12.10;99.90
3846;DHT22;1938;50.812;7.738;2022-10-26T23:18:51;12.20;99.90
3846;DHT22;1938;50.812;7.738;2022-10-26T23:21:22;12.10;99.90
3846;DHT22;1938;50.812;7.738;2022-10-26T23:23:48;12.10;99.90
3846;DHT22;1938;50.812;7.738;2022-10-26T23:26:18;12.00;99.90
3846;DHT22;1938;50.812;7.738;2022-10-26T23:28:48;11.90;99.90
3846;DHT22;1938;50.812;7.738;2022-10-26T23:31:25;11.90;99.90